Tiempo atmosférico en la estación meteorológica de Puerto El Pico, Ávila (1285 m.)



Fecha
DESCASC
Temp. máxima en grados centígrados (hora)
DESCASC
Temp. mínima en grados centígrados (hora)
DESCASC
Temp. media en grados centígrados
DESCASC
Racha de viento máxima en m/sg (hora)
DESCASC
Velocidad máxima media en intervalos de 10 minutos(hora)
DESCASC
Precipitaciones diarias en mm
DESCASC
Precipitaciones de 00:00 a 06:00 en mm
DESCASC
Precipitaciones de 06:00 a 12:00 en mm
DESCASC
Precipitaciones de 12:00 a 18:00 en mm
DESCASC
Precipitaciones de 18:00 a 24:00 en mm
DESCASC
08-12-2019 12.1 (13:40) -3.1 (03:50) 4.5 8.06 (15:10) 4.44 (15:10) 0.6 0 0 0.4 0.2
07-12-2019 10.7 (15:20) -4.4 (07:00) 3.1 6.39 (14:40) 3.89 (13:20) 0 0 0 0 0
06-12-2019 11.9 (15:30) -2.4 (23:00) 4.7 4.72 (15:40) 2.5 (15:40) 0 0 0 0 0
05-12-2019 6.9 (16:00) -0.2 (00:00) 3.4 3.89 (02:40) 2.5 (02:40) 0 0 0 0 0
04-12-2019 5.6 (14:00) -0.1 (00:00) 2.7 7.22 (16:50) 4.72 (17:00) 2.2 0 0 0.2 2
03-12-2019 7.8 (14:50) -4.1 (-00:0) 1.9 5 (16:00) 2.78 (16:00) 0.8 0 0 0 0.8
02-12-2019 6.4 (15:30) -0.7 (-00:0) 2.9 4.72 (13:00) 3.06 (14:30) 11.2 7.6 3.6 0 0
01-12-2019 3.3 (10:50) -1.1 (-00:0) 1.1 10 (07:50) 3.33 (20:40) 13.4 0 7.2 2.4 3.8
30-11-2019 8.9 (00:00) 0.8 (00:00) 4.8 12.5 (13:20) 6.67 (13:30) 14.6 1 0.8 5.6 7.2
29-11-2019 11.4 (13:00) 7.5 (00:00) 9.4 6.67 (01:20) 3.89 (01:10) 4.4 0.6 1.8 1.2 0.8
28-11-2019 7.8 (14:30) 2.4 (00:00) 5.1 10.83 (15:50) 5.83 (15:30) 0.4 0 0 0 0.4
27-11-2019 9.5 (13:10) 0.3 (00:00) 4.9 8.33 (14:50) 5 (14:50) 0.4 0.4 0 0 0
26-11-2019 9.3 (12:10) 1.4 (00:00) 5.4 16.11 (16:10) 8.61 (16:20) 19.6 0 0 11.4 8.2
25-11-2019 14.3 (14:40) 2.8 (00:00) 8.6 10 (02:10) 5.56 (00:20) 0 0 0 0 0
24-11-2019 9.6 (13:40) 1.1 (00:00) 5.4 11.67 (07:30) 6.11 (23:30) 0 0 0 0 0
23-11-2019 6.4 (15:10) 1.3 (00:00) 3.9 18.61 (07:10) 8.89 (02:50) 2.2 2.2 0 0 0
22-11-2019 7 (14:30) 2 (00:00) 4.5 18.89 (05:50) 9.72 (06:00) 43.2 12.4 22 8.2 0.6
21-11-2019 5.6 (13:40) -1.1 (-00:0) 2.2 6.67 (05:00) 3.33 (13:10) 1.4 0.2 0 0.6 0.6
20-11-2019 3 (10:30) -0.9 (-00:0) 1.1 9.17 (10:40) 5.56 (10:40) 3.8 0 1 2.2 0.6
19-11-2019 4.9 (15:00) -6 (-00:0) -0.5 6.39 (12:50) 3.89 (12:30) 0 0 0 0 0
18-11-2019 5.5 (13:20) -3.6 (-00:0) 1 10.28 (13:50) 6.67 (07:30) 0 0 0 0 0
17-11-2019 8.2 (13:50) -0.7 (-00:0) 3.7 10 (20:40) 6.39 (20:40) 2.6 0 0 1.6 1
16-11-2019 6.4 (14:20) -2.3 (-00:0) 2.1 8.89 (07:50) 6.11 (07:40) 0 0 0 0 0
15-11-2019 2.8 (15:20) -1.4 (-00:0) 0.7 11.94 (00:20) 6.67 (13:10) 0.2 0.2 0 0 0
14-11-2019 5.8 (04:30) -0.2 (00:00) 2.8 15.83 (20:40) 8.06 (21:00) 5.4 0.4 3.6 0.8 0.6
13-11-2019 13.8 (15:20) 1.3 (00:00) 7.6 13.61 (09:40) 8.33 (10:30) 2.2 2 0.2 0 0
12-11-2019 11.1 (15:00) -1.6 (-00:0) 4.8 8.89 (13:40) 5.83 (13:40) 0.4 0 0 0 0.4
11-11-2019 10.4 (14:10) 0.7 (23:20) 5.5 11.39 (16:00) 8.33 (16:30) 0 0 0 0 0
10-11-2019 4.4 (00:10) 0.7 (00:00) 2.6 14.44 (02:00) 8.89 (04:10) 2.4 0 0 2.2 0.2

Gráficas

Temp. máximas Temp. mínimas Temp. medias Precipitaciones Rachas de viento máximas Velocidades máximas media en intervalos de 10 minutos

Datos horarios

Fecha y hora oficial Temperatura (ºC) Velocidad del viento (km/h) Dirección del viento Racha (km/h) Dirección de racha Precipitación (mm) Presión (hPa) Tendencia (hPa) Humedad (%)
2019-12-09 23:00:00 -1.4 0 Calma 6 Sudeste 0 -- -- 80
2019-12-09 22:00:00 1.3 0 Calma 24 Nordeste 0 -- -- 69
2019-12-09 21:00:00 6 14 Nordeste 22 Nordeste 0 -- -- 44
2019-12-09 20:00:00 5.4 12 Nordeste 18 Nordeste 0 -- -- 49
2019-12-09 19:00:00 5.3 15 Nordeste 21 Nordeste 0 -- -- 48
2019-12-09 18:00:00 5.5 3 Sudeste 17 Norte 0 -- -- 66
2019-12-09 17:00:00 10.3 13 Norte 22 Noroeste 0 -- -- 35
2019-12-09 16:00:00 10.8 14 Norte 31 Norte 0 -- -- 39
2019-12-09 15:00:00 8.6 12 Norte 20 Noroeste 0 -- -- 54
2019-12-09 14:00:00 11.6 14 Norte 29 Norte 0 -- -- 29
2019-12-09 13:00:00 11.7 14 Norte 25 Norte 0 -- -- 31
2019-12-09 12:00:00 10 6 Nordeste 12 Nordeste 0 -- -- 36
2019-12-09 11:00:00 6 5 Este 10 Sudeste 0 -- -- 62
2019-12-09 10:00:00 -1.4 4 Sur 5 Sur 0 -- -- 92
2019-12-09 09:00:00 -3.1 0 Calma 9 Sudeste 0 -- -- 94
2019-12-09 08:00:00 -2.8 4 Sur 7 Sudeste 0 -- -- 97
2019-12-09 07:00:00 -2.3 0 Calma 8 Sudeste 0 -- -- 98
2019-12-09 06:00:00 -1.5 2 Sur 6 Sudoeste 0 -- -- 99
2019-12-09 05:00:00 0.8 3 Norte 15 Nordeste 0 -- -- 96
2019-12-09 04:00:00 3.9 8 Nordeste 16 Nordeste 0 -- -- 91
2019-12-09 03:00:00 1.4 0 Calma 9 Norte 0 -- -- 100
2019-12-09 02:00:00 3.8 4 Nordeste 17 Nordeste 0 -- -- 94
2019-12-09 01:00:00 6.6 11 Nordeste 21 Norte 0 -- -- 92
2019-12-09 00:00:00 7.4 12 Norte 23 Norte 0 -- -- 90
2019-12-08 23:00:00 8.4 2 Oeste 12 Este 0 -- -- 90
2019-12-08 22:00:00 9.1 5 Nordeste 21 Este 0 -- -- 89
2019-12-08 21:00:00 8.4 4 Nordeste 13 Este 0.2 -- -- 95
2019-12-08 20:00:00 8.2 3 Sudeste 16 Nordeste 0 -- -- 95
2019-12-08 19:00:00 8.8 3 Este 14 Nordeste 0 -- -- 90
2019-12-08 18:00:00 8.3 5 Norte 19 Nordeste 0 -- -- 92
2019-12-08 17:00:00 8.8 12 Norte 27 Norte 0 -- -- 90
2019-12-08 16:00:00 9.2 10 Nordeste 29 Norte 0.4 -- -- 85
2019-12-08 15:00:00 10.5 13 Norte 24 Norte 0 -- -- 81
2019-12-08 14:00:00 11.3 7 Oeste 17 Sudoeste 0 -- -- 75
2019-12-08 13:00:00 10.5 0 Calma 10 Nordeste 0 -- -- 82
2019-12-08 12:00:00 7.8 4 Este 9 Nordeste 0 -- -- 91
2019-12-08 11:00:00 3.3 2 Noroeste 7 Este 0 -- -- 100
2019-12-08 10:00:00 0 4 Norte 8 Oeste 0 -- -- 100
2019-12-08 09:00:00 -1.3 4 Sur 8 Sudoeste 0 -- -- 100
2019-12-08 08:00:00 -2.2 2 Sur 6 Sudeste 0 -- -- 100
2019-12-08 07:00:00 -3 2 Sudoeste 5 Norte 0 -- -- 100
2019-12-08 06:00:00 -2.6 0 Calma 9 Sur 0 -- -- 100
2019-12-08 05:00:00 -2.3 2 Sur 8 Sudeste 0 -- -- 100
2019-12-08 04:00:00 -3 2 Sur 6 Sur 0 -- -- 100
2019-12-08 03:00:00 -2.3 2 Sudoeste 6 Sur 0 -- -- 100
2019-12-08 02:00:00 -2.5 0 Calma 5 Sudoeste 0 -- -- 100
2019-12-08 01:00:00 -2.2 2 Sudoeste 5 Sudoeste 0 -- -- 100
2019-12-08 00:00:00 -1.9 4 Sur 5 Sur 0 -- -- 100
2019-12-07 23:00:00 -1.5 0 Calma 6 Sur 0 -- -- 100
2019-12-07 22:00:00 -0.7 3 Sur 6 Sudoeste 0 -- -- 100
2019-12-07 21:00:00 0.4 4 Sur 8 Oeste 0 -- -- 100
2019-12-07 20:00:00 0.9 0 Calma 6 Sur 0 -- -- 99
2019-12-07 19:00:00 1.2 0 Calma 7 Sudeste 0 -- -- 97
2019-12-07 18:00:00 3 5 Sur 13 Sudoeste 0 -- -- 95
2019-12-07 17:00:00 8.9 6 Sur 15 Sur 0 -- -- 80
2019-12-07 16:00:00 10.6 9 Sudoeste 21 Sudoeste 0 -- -- 74
2019-12-07 15:00:00 10.2 13 Sudoeste 23 Sur 0 -- -- 74
2019-12-07 14:00:00 9.5 13 Sudoeste 21 Sudoeste 0 -- -- 77
2019-12-07 13:00:00 8.9 12 Sur 19 Sudoeste 0 -- -- 81
2019-12-07 12:00:00 6.2 3 Sur 4 Sudeste 0 -- -- 86
2019-12-07 11:00:00 2.8 0 Calma 4 Sur 0 -- -- 99
2019-12-07 10:00:00 -1.5 0 Calma 4 Sudoeste 0 -- -- 100
2019-12-07 09:00:00 -4.1 2 Norte 6 Sur 0 -- -- 99
2019-12-07 08:00:00 -4 0 Calma 5 Sudoeste 0 -- -- 100
2019-12-07 07:00:00 -4.4 0 Calma 4 Sudoeste 0 -- -- 99
2019-12-07 06:00:00 -4.2 3 Sudoeste 5 Sudoeste 0 -- -- 99
2019-12-07 05:00:00 -3.5 2 Sur 5 Sudoeste 0 -- -- 100
2019-12-07 04:00:00 -3.5 0 Calma 4 Sur 0 -- -- 100
2019-12-07 03:00:00 -3.6 2 Sudoeste 4 Sur 0 -- -- 100
2019-12-07 02:00:00 -3 2 Sudoeste 5 Sudoeste 0 -- -- 100
2019-12-07 01:00:00 -2.2 0 Calma 6 Sur 0 -- -- 100
2019-12-07 00:00:00 -1.9 0 Calma 7 Sudoeste 0 -- -- 100
2019-12-06 23:00:00 -2.4 2 Sudeste 6 Nordeste 0 -- -- 100
2019-12-06 22:00:00 -1.7 0 Calma 6 Sudoeste 0 -- -- 100
2019-12-06 21:00:00 -1.3 0 Calma 5 Sudoeste 0 -- -- 100
2019-12-06 20:00:00 -0.2 0 Calma 5 Sudeste 0 -- -- 99
2019-12-06 19:00:00 1 2 Sudoeste 8 Sur 0 -- -- 99
2019-12-06 18:00:00 3.5 5 Sur 9 Sur 0 -- -- 95
2019-12-06 17:00:00 8.9 6 Sudoeste 11 Sudoeste 0 -- -- 78
2019-12-06 16:00:00 10.4 8 Sudoeste 17 Sudoeste 0 -- -- 71
2019-12-06 15:00:00 10.9 3 Noroeste 12 Noroeste 0 -- -- 65
2019-12-06 14:00:00 9.6 3 Norte 9 Norte 0 -- -- 69
2019-12-06 13:00:00 8.2 3 Nordeste 9 Norte 0 -- -- 75
2019-12-06 12:00:00 6.4 4 Noroeste 9 Oeste 0 -- -- 81
2019-12-06 11:00:00 4.6 4 Nordeste 9 Norte 0 -- -- 93
2019-12-06 10:00:00 3.3 0 Calma 3 Norte 0 -- -- 99
2019-12-06 09:00:00 2.1 0 Calma 5 Nordeste 0 -- -- 100
2019-12-06 08:00:00 2 3 Nordeste 5 Norte 0 -- -- 100
2019-12-06 07:00:00 2.3 3 Nordeste 7 Nordeste 0 -- -- 100
2019-12-06 06:00:00 2.6 2 Norte 6 Norte 0 -- -- 100
2019-12-06 05:00:00 2.8 3 Sur 4 Sur 0 -- -- 100
2019-12-06 04:00:00 2.7 0 Calma 4 Sudeste 0 -- -- 100
2019-12-06 03:00:00 2.5 0 Calma 6 Norte 0 -- -- 100
2019-12-06 02:00:00 2.4 5 Nordeste 8 Norte 0 -- -- 100
2019-12-06 01:00:00 2.5 2 Norte 9 Nordeste 0 -- -- 100
2019-12-06 00:00:00 2.9 3 Sudeste 6 Sudeste 0 -- -- 100
2019-12-05 23:00:00 2.5 2 Sur 6 Sudeste 0 -- -- 100
2019-12-05 22:00:00 2.5 3 Norte 8 Nordeste 0 -- -- 100
2019-12-05 21:00:00 2.4 0 Calma 6 Este 0 -- -- 100
2019-12-05 20:00:00 3 4 Sudoeste 6 Sudoeste 0 -- -- 100
2019-12-05 19:00:00 2.6 2 Sudeste 9 Este 0 -- -- 99
2019-12-05 18:00:00 3.2 3 Sudeste 7 Nordeste 0 -- -- 96
2019-12-05 17:00:00 6.2 3 Sur 6 Sudeste 0 -- -- 90
2019-12-05 16:00:00 6.9 3 Sudoeste 9 Oeste 0 -- -- 80
2019-12-05 15:00:00 6 3 Sudeste 10 Norte 0 -- -- 83
2019-12-05 14:00:00 5.9 2 Sudeste 12 Norte 0 -- -- 83
2019-12-05 13:00:00 5.2 3 Noroeste 11 Norte 0 -- -- 88
2019-12-05 12:00:00 4 2 Norte 6 Nordeste 0 -- -- 92
2019-12-05 11:00:00 3 0 Calma 6 Nordeste 0 -- -- 100
2019-12-05 10:00:00 1 0 Calma 8 Oeste 0 -- -- 100
2019-12-05 09:00:00 -0.1 0 Calma 5 Sudeste 0 -- -- 100
2019-12-05 08:00:00 -0.2 0 Calma 4 Nordeste 0 -- -- 100
2019-12-05 07:00:00 -0.2 2 Norte 6 Nordeste 0 -- -- 100
2019-12-05 06:00:00 0.5 0 Calma 4 Norte 0 -- -- 100
2019-12-05 05:00:00 0.4 0 Calma 10 Nordeste 0 -- -- 100
2019-12-05 04:00:00 1.6 5 Norte 14 Norte 0 -- -- 98
2019-12-05 03:00:00 2.6 5 Norte 14 Norte 0 -- -- 100
2019-12-05 02:00:00 1.8 2 Nordeste 6 Sudeste 0 -- -- 100
2019-12-05 01:00:00 1 2 Sudoeste 10 Este 0 -- -- 100
2019-12-05 00:00:00 1.3 0 Calma 6 Este 0 -- -- 100
2019-12-04 23:00:00 2.4 3 Sudeste 6 Sur 0 -- -- 100
2019-12-04 22:00:00 2.8 4 Nordeste 8 Norte 0 -- -- 98
2019-12-04 21:00:00 3.5 6 Nordeste 11 Nordeste 0.2 -- -- 97
2019-12-04 20:00:00 3.4 6 Norte 10 Norte 0.4 -- -- 99
2019-12-04 19:00:00 3.2 5 Norte 10 Norte 1.4 -- -- 99
2019-12-04 18:00:00 3.4 6 Noroeste 22 Norte 0.2 -- -- 96
2019-12-04 17:00:00 4.6 17 Norte 26 Noroeste 0 -- -- 87
2019-12-04 16:00:00 5.1 12 Norte 19 Norte 0 -- -- 88
2019-12-04 15:00:00 5.5 5 Norte 9 Nordeste 0 -- -- 89
2019-12-04 14:00:00 5.6 6 Nordeste 9 Nordeste 0 -- -- 88
2019-12-04 13:00:00 4.5 4 Nordeste 9 Nordeste 0 -- -- 92
2019-12-04 12:00:00 3.6 7 Nordeste 9 Norte 0 -- -- 95
2019-12-04 11:00:00 2.5 4 Norte 6 Nordeste 0 -- -- 99
2019-12-04 10:00:00 1.9 0 Calma 4 Este 0 -- -- 100
2019-12-04 09:00:00 0.6 0 Calma 5 Sudeste 0 -- -- 100
2019-12-04 08:00:00 0.3 0 Calma 5 Sudeste 0 -- -- 100
2019-12-04 07:00:00 0.2 0 Calma 4 Este 0 -- -- 100
2019-12-04 06:00:00 0.7 3 Este 7 Este 0 -- -- 100
2019-12-04 05:00:00 1.1 0 Calma 5 Norte 0 -- -- 100
2019-12-04 04:00:00 1.2 0 Calma 6 Este 0 -- -- 100
2019-12-04 03:00:00 1.2 0 Calma 5 Este 0 -- -- 100
2019-12-04 02:00:00 1.4 0 Calma 5 Norte 0 -- -- 100
2019-12-04 01:00:00 1.5 0 Calma 6 Sudeste 0 -- -- 100
2019-12-04 00:00:00 1.6 3 Sudeste 6 Este 0 -- -- 100
2019-12-03 23:00:00 1.6 3 Sur 8 Nordeste 0 -- -- 100
2019-12-03 22:00:00 1.3 7 Nordeste 13 Sur 0 -- -- 100
2019-12-03 21:00:00 1.1 7 Norte 10 Nordeste 0.8 -- -- 99
2019-12-03 20:00:00 1.1 0 Calma 5 Sur 0 -- -- 99
2019-12-03 19:00:00 0.6 0 Calma 10 Sudoeste 0 -- -- 98
2019-12-03 18:00:00 1.8 7 Sur 10 Sudeste 0 -- -- 94
2019-12-03 17:00:00 4.4 2 Sudeste 13 Sur 0 -- -- 89
2019-12-03 16:00:00 5.3 10 Sur 18 Sur 0 -- -- 78
2019-12-03 15:00:00 7.6 5 Sur 13 Sudoeste 0 -- -- 71
2019-12-03 14:00:00 5.7 5 Sur 15 Sur 0 -- -- 78
2019-12-03 13:00:00 5.7 0 Calma 5 Sudoeste 0 -- -- 82
2019-12-03 12:00:00 2.8 3 Sudeste 9 Sudoeste 0 -- -- 91
2019-12-03 11:00:00 1.4 0 Calma 9 Sur 0 -- -- 97
2019-12-03 10:00:00 -1.1 3 Sur 4 Sur 0 -- -- 100
2019-12-03 09:00:00 -4 0 Calma 3 Sudeste 0 -- -- 99
2019-12-03 08:00:00 -3.5 0 Calma 4 Nordeste 0 -- -- 100
2019-12-03 07:00:00 -3.9 0 Calma 5 Sudoeste 0 -- -- 100
2019-12-03 06:00:00 -3.1 2 Sur 4 Sudoeste 0 -- -- 100
2019-12-03 05:00:00 -2.3 2 Norte 4 Este 0 -- -- 100
2019-12-03 04:00:00 -1.6 3 Nordeste 5 Sudeste 0 -- -- 100
2019-12-03 03:00:00 -1.2 2 Sudeste 8 Sudoeste 0 -- -- 100
2019-12-03 02:00:00 -1.2 2 Este 6 Norte 0 -- -- 100
2019-12-03 01:00:00 -1.6 0 Calma 6 Este 0 -- -- 100
2019-12-03 00:00:00 -0.6 0 Calma 6 Nordeste 0 -- -- 100
2019-12-02 23:00:00 0.7 2 Norte 12 Norte 0 -- -- 97
2019-12-02 22:00:00 1.2 4 Norte 14 Nordeste 0 -- -- 98
2019-12-02 21:00:00 0.6 4 Norte 13 Norte 0 -- -- 99
2019-12-02 20:00:00 1.2 7 Norte 14 Este 0 -- -- 97
2019-12-02 19:00:00 1.8 5 Nordeste 13 Este 0 -- -- 96
2019-12-02 18:00:00 1.7 3 Este 6 Sudeste 0 -- -- 98
2019-12-02 17:00:00 2.6 4 Norte 9 Nordeste 0 -- -- 95
2019-12-02 16:00:00 4.4 6 Norte 13 Norte 0 -- -- 86
2019-12-02 15:00:00 5 7 Norte 16 Norte 0 -- -- 78
2019-12-02 14:00:00 3.2 6 Nordeste 14 Nordeste 0 -- -- 90
2019-12-02 13:00:00 2.3 8 Norte 17 Nordeste 0 -- -- 89
2019-12-02 12:00:00 2.6 7 Nordeste 15 Norte 0.2 -- -- 87
2019-12-02 11:00:00 2 6 Norte 9 Norte 0.4 -- -- 90
2019-12-02 10:00:00 1.1 0 Calma 10 Nordeste 0 -- -- 93
2019-12-02 09:00:00 -0.6 2 Nordeste 12 Nordeste 0 -- -- 100
2019-12-02 08:00:00 -0.1 4 Nordeste 9 Norte 0.6 -- -- 100
2019-12-02 07:00:00 0.1 4 Nordeste 9 Norte 2.4 -- -- 100
2019-12-02 06:00:00 0.2 4 Nordeste 14 Noroeste 0.6 -- -- 100
2019-12-02 05:00:00 0.6 4 Noroeste 15 Noroeste 1.2 -- -- 100
2019-12-02 04:00:00 0.2 4 Noroeste 10 Norte 2.6 -- -- 100
2019-12-02 03:00:00 -0.1 5 Noroeste 10 Norte 0.8 -- -- 100
2019-12-02 02:00:00 -0.2 4 Norte 6 Norte 1 -- -- 100
2019-12-02 01:00:00 -0.2 5 Nordeste 7 Nordeste 1.4 -- -- 100
2019-12-02 00:00:00 -0.2 4 Norte 9 Norte 2 -- -- 100
2019-12-01 23:00:00 -0.1 7 Norte 17 Norte 0.8 -- -- 100
2019-12-01 22:00:00 0.7 11 Norte 21 Nordeste 0.6 -- -- 98
2019-12-01 21:00:00 1.8 9 Nordeste 19 Nordeste 0.2 -- -- 99
2019-12-01 20:00:00 2 7 Norte 10 Norte 0.2 -- -- 100
2019-12-01 19:00:00 2 6 Norte 9 Norte 0 -- -- 100
2019-12-01 18:00:00 1.9 7 Norte 12 Noroeste 0.2 -- -- 99
2019-12-01 17:00:00 2 8 Norte 17 Norte 0.2 -- -- 99
2019-12-01 16:00:00 2.2 10 Norte 18 Norte 0.2 -- -- 98
2019-12-01 15:00:00 1.9 3 Noroeste 11 Oeste 0.4 -- -- 99
2019-12-01 14:00:00 2.2 7 Norte 12 Norte 0.4 -- -- 99
2019-12-01 13:00:00 1.2 3 Norte 5 Norte 1 -- -- 100
2019-12-01 12:00:00 0.8 0 Calma 15 Norte 2.2 -- -- 99
2019-12-01 11:00:00 2.9 5 Norte 14 Norte 1.2 -- -- 98
2019-12-01 10:00:00 1.5 7 Norte 16 Nordeste 2.4 -- -- 100
2019-12-01 09:00:00 2.1 5 Norte 20 Sudoeste 1 -- -- 98
2019-12-01 08:00:00 2.8 11 Sur 36 Sur 0.2 -- -- 100
2019-12-01 07:00:00 2.3 8 Sur 25 Oeste 0.2 -- -- 100
2019-12-01 06:00:00 -0.1 4 Sudoeste 18 Sur 0 -- -- 100
2019-12-01 05:00:00 2 10 Sur 20 Sur 0 -- -- 100
2019-12-01 04:00:00 0.7 5 Sur 13 Sur 0 -- -- 100
2019-12-01 03:00:00 -0.8 4 Sudoeste 12 Sudoeste 0 -- -- 100
2019-12-01 02:00:00 -0.9 6 Sur 10 Sudoeste 0 -- -- 100
2019-12-01 01:00:00 -0.5 4 Sur 12 Sur 0 -- -- 100
2019-12-01 00:00:00 0.8 6 Sur 13 Sur 0 -- -- 100
2019-11-30 23:00:00 2.3 4 Nordeste 16 Norte 0 -- -- 100
2019-11-30 22:00:00 3.3 5 Sur 15 Sudeste 0 -- -- 100
2019-11-30 21:00:00 4.5 5 Sudeste 23 Norte 1 -- -- 100
2019-11-30 20:00:00 4.8 7 Norte 31 Noroeste 5.6 -- -- 100
2019-11-30 19:00:00 7.9 10 Sudoeste 24 Sudoeste 0.6 -- -- 100
2019-11-30 18:00:00 7.7 12 Sur 23 Sur 0.8 -- -- 100
2019-11-30 17:00:00 7.7 15 Sur 34 Sur 0.6 -- -- 100
2019-11-30 16:00:00 7.6 19 Sur 35 Sur 1.6 -- -- 100
2019-11-30 15:00:00 7.4 17 Sur 35 Sur 1.8 -- -- 100
2019-11-30 14:00:00 7.3 23 Sur 45 Sur 0.6 -- -- 100
2019-11-30 13:00:00 7.2 22 Sur 41 Sur 0.2 -- -- 100
2019-11-30 12:00:00 7.3 24 Sur 43 Sur 0 -- -- 100
2019-11-30 11:00:00 7.4 18 Sur 35 Sur 0 -- -- 100
2019-11-30 10:00:00 7.7 18 Sur 36 Sudoeste 0.2 -- -- 100
2019-11-30 09:00:00 7.7 18 Sur 30 Sudoeste 0 -- -- 100
2019-11-30 08:00:00 7.9 14 Sur 28 Sur 0.4 -- -- 100
2019-11-30 07:00:00 7.7 11 Sur 24 Sur 0.2 -- -- 100
2019-11-30 06:00:00 7.8 3 Sudoeste 13 Sur 0.2 -- -- 100
2019-11-30 05:00:00 7.6 2 Sur 10 Sudoeste 0.2 -- -- 100
2019-11-30 04:00:00 8.3 5 Sudoeste 19 Sur 0 -- -- 100
2019-11-30 03:00:00 8.4 9 Sur 23 Sudoeste 0.4 -- -- 100
2019-11-30 02:00:00 8.6 13 Sur 24 Sudoeste 0 -- -- 100
2019-11-30 01:00:00 8.8 12 Sur 21 Sur 0.2 -- -- 100
2019-11-30 00:00:00 8.9 7 Sur 18 Sur 0.2 -- -- 100
2019-11-29 23:00:00 9 8 Sur 22 Sur 0.4 -- -- 100
2019-11-29 22:00:00 9 9 Sur 22 Sudoeste 0.2 -- -- 100
2019-11-29 21:00:00 8.9 10 Sur 23 Sudoeste 0 -- -- 100
2019-11-29 20:00:00 8.6 12 Sur 21 Sur 0 -- -- 100
2019-11-29 19:00:00 8.7 10 Sur 22 Sur 0 -- -- 100
2019-11-29 18:00:00 8.9 11 Sur 18 Sudoeste 0 -- -- 99
2019-11-29 17:00:00 9.6 6 Sur 10 Sudoeste 0.2 -- -- 99
2019-11-29 16:00:00 10 3 Sudoeste 9 Sudoeste 0.2 -- -- 97
2019-11-29 15:00:00 10.1 5 Norte 14 Nordeste 0.8 -- -- 95
2019-11-29 14:00:00 10.6 3 Nordeste 18 Sur 0 -- -- 94
2019-11-29 13:00:00 11.4 5 Sur 18 Sur 0 -- -- 96
2019-11-29 12:00:00 10.1 7 Sur 17 Sudoeste 0 -- -- 97
2019-11-29 11:00:00 8.7 12 Sur 19 Sur 0 -- -- 100
2019-11-29 10:00:00 8.3 7 Sur 18 Sudoeste 0.8 -- -- 100
2019-11-29 09:00:00 7.9 10 Sur 17 Sur 0.2 -- -- 100
2019-11-29 08:00:00 7.8 9 Sur 22 Sur 0.6 -- -- 100
2019-11-29 07:00:00 7.9 10 Sur 20 Sur 0.2 -- -- 100
2019-11-29 06:00:00 7.8 9 Sur 17 Sudoeste 0 -- -- 100
2019-11-29 05:00:00 7.8 8 Sur 22 Sur 0 -- -- 100
2019-11-29 04:00:00 7.8 9 Sur 20 Sudoeste 0.2 -- -- 100
2019-11-29 03:00:00 7.8 9 Sudoeste 22 Sudoeste 0.2 -- -- 100
2019-11-29 02:00:00 7.7 5 Sudoeste 24 Sur 0.2 -- -- 100
2019-11-29 01:00:00 7.6 13 Sur 22 Sur 0 -- -- 100
2019-11-29 00:00:00 7.5 9 Sur 23 Sudoeste 0.2 -- -- 100
2019-11-28 23:00:00 7.3 12 Sudoeste 23 Sudoeste 0 -- -- 100
2019-11-28 22:00:00 7.2 12 Sur 23 Sur 0 -- -- 100
2019-11-28 21:00:00 6.9 11 Sudoeste 23 Sudoeste 0 -- -- 100
2019-11-28 20:00:00 6.4 6 Sudoeste 18 Oeste 0 -- -- 100
2019-11-28 19:00:00 6.7 9 Sudoeste 24 Sudoeste 0.2 -- -- 100
2019-11-28 18:00:00 6.7 12 Sur 32 Sur 0 -- -- 98
2019-11-28 17:00:00 7.5 17 Sur 33 Sur 0 -- -- 92
2019-11-28 16:00:00 7.4 18 Sur 39 Sudoeste 0 -- -- 90
2019-11-28 15:00:00 6.9 17 Sur 31 Sur 0 -- -- 96
2019-11-28 14:00:00 6.7 14 Sur 25 Sur 0 -- -- 97
2019-11-28 13:00:00 7.1 14 Sur 27 Sur 0 -- -- 97
2019-11-28 12:00:00 7.3 13 Sur 27 Sur 0 -- -- 93
2019-11-28 11:00:00 6.5 13 Sur 26 Sudeste 0 -- -- 99
2019-11-28 10:00:00 5.1 14 Sur 25 Sur 0 -- -- 100
2019-11-28 09:00:00 4.4 8 Sur 21 Sur 0 -- -- 100
2019-11-28 08:00:00 4.3 11 Sur 27 Sur 0 -- -- 100
2019-11-28 07:00:00 4.2 11 Sur 20 Sudoeste 0 -- -- 100
2019-11-28 06:00:00 4.1 9 Sur 18 Sur 0 -- -- 100
2019-11-28 05:00:00 4.6 8 Sur 18 Sudoeste 0 -- -- 100
2019-11-28 04:00:00 4.3 4 Este 20 Sur 0 -- -- 100
2019-11-28 03:00:00 4.5 8 Sur 15 Sur 0 -- -- 100
2019-11-28 02:00:00 4.8 7 Sur 18 Sudeste 0 -- -- 100
2019-11-28 01:00:00 2.4 4 Sudoeste 8 Sur 0 -- -- 99
2019-11-28 00:00:00 5.1 7 Sur 18 Sur 0 -- -- 99
2019-11-27 23:00:00 4.4 5 Sur 18 Sudeste 0 -- -- 100
2019-11-27 22:00:00 5 8 Sur 16 Sur 0 -- -- 99
2019-11-27 21:00:00 3.6 6 Sudoeste 13 Sur 0 -- -- 98
2019-11-27 20:00:00 5.4 4 Sudoeste 17 Sudoeste 0 -- -- 98
2019-11-27 19:00:00 5.7 7 Sur 16 Sur 0 -- -- 97
2019-11-27 18:00:00 5.9 9 Sur 24 Sudeste 0 -- -- 94
2019-11-27 17:00:00 6.3 11 Sur 23 Sur 0 -- -- 94
2019-11-27 16:00:00 6.8 11 Sur 27 Sur 0 -- -- 93
2019-11-27 15:00:00 6.6 14 Sur 30 Sur 0 -- -- 92
2019-11-27 14:00:00 5.9 12 Sur 23 Sur 0 -- -- 96
2019-11-27 06:00:00 -- -- -- -- -- -- -- -- --
2019-11-27 05:00:00 3.8 7 Sur 13 Sudoeste 0 -- -- 97
2019-11-27 04:00:00 4.1 5 Sur 16 Norte 0 -- -- 98
2019-11-27 03:00:00 5.2 5 Sur 19 Sudoeste 0 -- -- 99
2019-11-27 02:00:00 6.3 5 Sur 23 Este 0 -- -- 98
2019-11-27 01:00:00 7.5 4 Este 21 Sudoeste 0.4 -- -- 100
2019-11-27 00:00:00 7.7 12 Sur 28 Sur 0 -- -- 100
2019-11-26 23:00:00 7.6 14 Sudoeste 35 Sur 0 -- -- 100
2019-11-26 22:00:00 7.7 13 Sudoeste 56 Sudoeste 0 -- -- 99
2019-11-26 21:00:00 8.1 17 Sudoeste 52 Sudoeste 0 -- -- 94
2019-11-26 20:00:00 8.8 20 Sudoeste 45 Sudoeste 3.2 -- -- 99
2019-11-26 19:00:00 8.9 23 Sur 52 Sur 5 -- -- 98
2019-11-26 18:00:00 8.8 22 Sur 46 Sur 3.2 -- -- 97
2019-11-26 17:00:00 8.6 26 Sur 58 Sur 3.2 -- -- 98
2019-11-26 16:00:00 8.4 24 Sur 51 Sudoeste 2.4 -- -- 100
2019-11-26 15:00:00 8.3 26 Sur 55 Sur 1.8 -- -- 99
2019-11-26 14:00:00 8.5 20 Sur 45 Sur 0.6 -- -- 99
2019-11-26 13:00:00 8.8 26 Sur 42 Sur 0.2 -- -- 99
2019-11-26 12:00:00 9.1 21 Sur 46 Sudeste 0 -- -- 97
2019-11-26 11:00:00 8.2 18 Sur 38 Sur 0 -- -- 100
2019-11-26 10:00:00 7.7 14 Sur 37 Sur 0 -- -- 100
2019-11-26 09:00:00 7.3 15 Sur 35 Sur 0 -- -- 100
2019-11-26 08:00:00 6.5 14 Sur 28 Sudoeste 0 -- -- 100
2019-11-26 07:00:00 6.5 17 Sur 28 Sudoeste 0 -- -- 99
2019-11-26 06:00:00 6.3 16 Sur 26 Sur 0 -- -- 99
2019-11-26 05:00:00 6.5 13 Sur 23 Sur 0 -- -- 98
2019-11-26 04:00:00 4.5 8 Sur 18 Sur 0 -- -- 99
2019-11-26 03:00:00 6.3 11 Sur 21 Sur 0 -- -- 100
2019-11-26 02:00:00 1.9 0 Calma 6 Sudeste 0 -- -- 99
2019-11-26 01:00:00 1.5 0 Calma 8 Sur 0 -- -- 99
2019-11-26 00:00:00 2.8 0 Calma 9 Sur 0 -- -- 98
2019-11-25 23:00:00 4.7 8 Sur 11 Sur 0 -- -- 99
2019-11-25 22:00:00 4.8 8 Sudoeste 11 Sudoeste 0 -- -- 96
2019-11-25 21:00:00 6.5 5 Nordeste 17 Este 0 -- -- 87
2019-11-25 20:00:00 6.2 3 Sudeste 14 Sur 0 -- -- 96
2019-11-25 19:00:00 6.7 9 Sur 15 Sudoeste 0 -- -- 96
2019-11-25 18:00:00 8 8 Sur 23 Sur 0 -- -- 92
2019-11-25 17:00:00 8.5 12 Sur 24 Sur 0 -- -- 92
2019-11-25 16:00:00 9.9 12 Sudoeste 27 Sudoeste 0 -- -- 89
2019-11-25 15:00:00 12.9 8 Oeste 26 Norte 0 -- -- 68
2019-11-25 14:00:00 13.1 13 Norte 26 Noroeste 0 -- -- 55
2019-11-25 13:00:00 10.5 10 Sur 26 Sudoeste 0 -- -- 84
2019-11-25 12:00:00 12.7 9 Oeste 20 Oeste 0 -- -- 60
2019-11-25 11:00:00 12.3 2 Sudeste 15 Sur 0 -- -- 69
2019-11-25 10:00:00 6.4 5 Sur 10 Sur 0 -- -- 92
2019-11-25 09:00:00 4.7 4 Sur 13 Sudeste 0 -- -- 97
2019-11-25 08:00:00 5.3 6 Sudeste 18 Sudeste 0 -- -- 98
2019-11-25 07:00:00 4.4 6 Sur 13 Sudoeste 0 -- -- 99
2019-11-25 06:00:00 6.1 9 Sudoeste 24 Sur 0 -- -- 99
2019-11-25 05:00:00 6 10 Sur 22 Sur 0 -- -- 99
2019-11-25 04:00:00 6.3 12 Sur 31 Sur 0 -- -- 99
2019-11-25 03:00:00 6 11 Sur 36 Sudeste 0 -- -- 99
2019-11-25 02:00:00 5.7 16 Sur 34 Sur 0 -- -- 99
2019-11-25 01:00:00 5.2 13 Sur 34 Sur 0 -- -- 99
2019-11-25 00:00:00 4.6 19 Sur 36 Sur 0 -- -- 99
2019-11-24 23:00:00 4.7 16 Sur 31 Sur 0 -- -- 94
2019-11-24 22:00:00 4.7 16 Sur 33 Sur 0 -- -- 93
2019-11-24 21:00:00 4 9 Sur 20 Sur 0 -- -- 85
2019-11-24 20:00:00 4.4 11 Sur 19 Sudoeste 0 -- -- 85
2019-11-24 19:00:00 3.4 11 Sur 24 Sudoeste 0 -- -- 87
2019-11-24 18:00:00 3.7 10 Sur 23 Sur 0 -- -- 86
2019-11-24 17:00:00 5.5 11 Sur 21 Sudoeste 0 -- -- 80
2019-11-24 16:00:00 5.5 12 Sudoeste 24 Sudeste 0 -- -- 81
2019-11-24 15:00:00 7.9 8 Sur 22 Sudoeste 0 -- -- 72
2019-11-24 14:00:00 8 11 Sur 21 Sudoeste 0 -- -- 68
2019-11-24 13:00:00 7.8 11 Noroeste 23 Norte 0 -- -- 50
2019-11-24 12:00:00 5.9 9 Noroeste 24 Norte 0 -- -- 53
2019-11-24 11:00:00 5.2 7 Norte 21 Norte 0 -- -- 53
2019-11-24 10:00:00 2.8 11 Nordeste 19 Nordeste 0 -- -- 73
2019-11-24 09:00:00 1.6 9 Este 27 Nordeste 0 -- -- 77
2019-11-24 08:00:00 1.3 13 Nordeste 42 Norte 0 -- -- 77
2019-11-24 07:00:00 1.6 15 Norte 30 Norte 0 -- -- 74
2019-11-24 06:00:00 1.4 9 Norte 20 Nordeste 0 -- -- 78
2019-11-24 05:00:00 2.1 12 Nordeste 41 Norte 0 -- -- 77
2019-11-24 04:00:00 2.4 17 Norte 36 Nordeste 0 -- -- 76
2019-11-24 03:00:00 2.9 15 Nordeste 27 Este 0 -- -- 77
2019-11-24 02:00:00 2.9 6 Nordeste 26 Norte 0 -- -- 83
2019-11-24 01:00:00 2.8 13 Norte 31 Norte 0 -- -- 84
2019-11-24 00:00:00 3.1 11 Norte 34 Norte 0 -- -- 81
2019-11-23 23:00:00 3.1 15 Norte 35 Norte 0 -- -- 80
2019-11-23 22:00:00 3.1 15 Norte 35 Norte 0 -- -- 81
2019-11-23 21:00:00 2.9 12 Norte 25 Norte 0 -- -- 81
2019-11-23 20:00:00 2.4 10 Norte 25 Noroeste 0 -- -- 82
2019-11-23 19:00:00 3.2 10 Norte 23 Norte 0 -- -- 79
2019-11-23 18:00:00 3.5 12 Norte 31 Norte 0 -- -- 75
2019-11-23 17:00:00 4.2 14 Norte 30 Norte 0 -- -- 72
2019-11-23 16:00:00 6 14 Norte 39 Norte 0 -- -- 67
2019-11-23 15:00:00 5.5 16 Norte 40 Norte 0 -- -- 72
2019-11-23 14:00:00 5.8 15 Norte 46 Norte 0 -- -- 70
2019-11-23 13:00:00 5 20 Norte 49 Norte 0 -- -- 74
2019-11-23 12:00:00 4.6 15 Norte 41 Norte 0 -- -- 79
2019-11-23 11:00:00 2.9 14 Norte 36 Norte 0 -- -- 80
2019-11-23 10:00:00 2.2 16 Norte 44 Norte 0 -- -- 84
2019-11-23 09:00:00 1.6 18 Norte 49 Norte 0 -- -- 84
2019-11-23 08:00:00 1.3 24 Norte 67 Norte 0 -- -- 84
2019-11-23 07:00:00 1.6 27 Norte 67 Norte 0 -- -- 79
2019-11-23 06:00:00 2 15 Norte 55 Noroeste 0 -- -- 81
2019-11-23 05:00:00 2.1 23 Norte 53 Norte 0 -- -- 81
2019-11-23 04:00:00 2.3 14 Norte 55 Norte 0 -- -- 86
2019-11-23 03:00:00 2.4 27 Norte 66 Norte 0.2 -- -- 85
2019-11-23 02:00:00 2 17 Norte 37 Norte 0.4 -- -- 90
2019-11-23 01:00:00 2.5 11 Noroeste 48 Oeste 1.6 -- -- 89
2019-11-23 00:00:00 4.1 6 Sur 29 Sudoeste 0.2 -- -- 86
2019-11-22 23:00:00 4.1 11 Sudoeste 31 Sudoeste 0.4 -- -- 97
2019-11-22 22:00:00 5.5 13 Sur 29 Sudoeste 0 -- -- 74
2019-11-22 21:00:00 4.7 10 Sur 21 Sudoeste 0 -- -- 82
2019-11-22 20:00:00 5.3 10 Sur 35 Sur 0 -- -- 87
2019-11-22 19:00:00 5.8 8 Noroeste 23 Sudoeste 0 -- -- 85
2019-11-22 18:00:00 5.9 9 Sur 24 Sudoeste 0 -- -- 100
2019-11-22 17:00:00 6.9 12 Sudoeste 29 Sur 0.2 -- -- 100
2019-11-22 16:00:00 7 17 Sur 33 Sur 0.4 -- -- 100
2019-11-22 15:00:00 6.9 17 Sur 38 Sur 0.4 -- -- 100
2019-11-22 14:00:00 6.7 21 Sur 41 Sudoeste 2.8 -- -- 100
2019-11-22 13:00:00 5.8 21 Sur 46 Sudoeste 4.4 -- -- 100
2019-11-22 12:00:00 5.1 18 Sur 46 Sudoeste 5 -- -- 100
2019-11-22 11:00:00 4.9 30 Sur 52 Sur 3.8 -- -- 100
2019-11-22 10:00:00 4.6 27 Sur 58 Sur 3.6 -- -- 100
2019-11-22 09:00:00 4.6 32 Sur 64 Sur 3.8 -- -- 100
2019-11-22 08:00:00 4.4 23 Sur 60 Sur 3.8 -- -- 100
2019-11-22 07:00:00 3.9 29 Sur 60 Sur 2 -- -- 100
2019-11-22 06:00:00 3.8 35 Sur 68 Sur 0.8 -- -- 100
2019-11-22 05:00:00 4 22 Sur 49 Sudoeste 1.8 -- -- 100
2019-11-22 04:00:00 4 22 Sur 46 Sur 3.8 -- -- 100
2019-11-22 03:00:00 4 13 Sur 33 Sudoeste 1 -- -- 100
2019-11-22 02:00:00 4 16 Sur 52 Sur 3 -- -- 100
2019-11-22 01:00:00 3.7 15 Sur 33 Sur 2 -- -- 100
2019-11-22 00:00:00 2 5 Norte 12 Nordeste 0.6 -- -- 100
2019-11-21 23:00:00 0.5 6 Nordeste 13 Nordeste 0 -- -- 100
2019-11-21 22:00:00 -0.5 2 Noroeste 13 Norte 0 -- -- 100
2019-11-21 21:00:00 0 6 Nordeste 10 Nordeste 0 -- -- 100
2019-11-21 20:00:00 -0.3 3 Nordeste 7 Norte 0 -- -- 100
2019-11-21 19:00:00 1.8 5 Sur 11 Sur 0 -- -- 100
2019-11-21 18:00:00 2.4 7 Sur 14 Sur 0 -- -- 99
2019-11-21 17:00:00 3.9 8 Sur 18 Sur 0 -- -- 99
2019-11-21 16:00:00 4.2 10 Sur 20 Sur 0 -- -- 99
2019-11-21 15:00:00 4.6 11 Sur 23 Sudoeste 0.6 -- -- 98
2019-11-21 14:00:00 4.5 12 Sur 22 Sudoeste 0 -- -- 96
2019-11-21 13:00:00 4.7 11 Sur 20 Sur 0 -- -- 96
2019-11-21 12:00:00 4.5 9 Sur 21 Sudoeste 0 -- -- 96
2019-11-21 11:00:00 3.6 11 Sudoeste 19 Sur 0 -- -- 98
2019-11-21 10:00:00 2.7 10 Sudoeste 18 Sur 0 -- -- 100
2019-11-21 09:00:00 0.7 4 Norte 13 Sudoeste 0 -- -- 98
2019-11-21 08:00:00 2.1 7 Sudoeste 19 Sudoeste 0 -- -- 100
2019-11-21 07:00:00 1.9 8 Sur 20 Sudoeste 0 -- -- 100
2019-11-21 06:00:00 1.8 8 Sur 21 Sudoeste 0 -- -- 100
2019-11-21 05:00:00 1.8 9 Sudoeste 24 Sudoeste 0 -- -- 100
2019-11-21 04:00:00 1.6 10 Sur 20 Sur 0.2 -- -- 100
2019-11-21 03:00:00 1.5 8 Sudoeste 24 Sur 0 -- -- 100
2019-11-21 02:00:00 0.8 5 Sudoeste 12 Sudoeste 0 -- -- 100
2019-11-21 01:00:00 -1.1 3 Norte 12 Sudoeste 0 -- -- 100
2019-11-21 00:00:00 0.5 5 Sudoeste 16 Sudoeste 0.2 -- -- 100
2019-11-20 23:00:00 0.6 5 Oeste 25 Sur 0 -- -- 99
2019-11-20 22:00:00 0.5 8 Sur 17 Sudoeste 0 -- -- 100
2019-11-20 21:00:00 0 3 Sur 16 Sur 0 -- -- 100
2019-11-20 20:00:00 0.5 8 Sur 25 Sur 0 -- -- 100
2019-11-20 19:00:00 0.4 11 Sudoeste 23 Sudoeste 0.4 -- -- 99
2019-11-20 18:00:00 0.9 10 Sur 22 Sur 0 -- -- 99
2019-11-20 17:00:00 1.1 11 Sur 24 Sur 0 -- -- 98
2019-11-20 16:00:00 1 9 Sudoeste 32 Sudoeste 0.2 -- -- 98
2019-11-20 15:00:00 0.5 17 Sur 28 Sur 0.4 -- -- 98
2019-11-20 14:00:00 0.5 12 Sur 27 Sur 0.8 -- -- 98
2019-11-20 13:00:00 1 14 Sur 33 Sur 0.8 -- -- 97
2019-11-20 12:00:00 0.7 13 Sur 32 Sur 1 -- -- 98
2019-11-20 11:00:00 1.7 20 Sur 33 Sur 0 -- -- 90
2019-11-20 10:00:00 2.6 17 Sur 31 Sur 0 -- -- 88
2019-11-20 09:00:00 2.2 8 Oeste 18 Sudoeste 0 -- -- 88
2019-11-20 08:00:00 1.7 12 Sur 27 Sur 0 -- -- 89
2019-11-20 07:00:00 1.4 5 Sur 26 Sudoeste 0 -- -- 93
2019-11-20 06:00:00 1.5 13 Sur 24 Sur 0 -- -- 91
2019-11-20 05:00:00 1.4 10 Sur 22 Sur 0 -- -- 90
2019-11-20 04:00:00 1.5 13 Sur 24 Sudoeste 0 -- -- 86
2019-11-20 03:00:00 1.3 7 Sur 15 Sur 0 -- -- 89
2019-11-20 02:00:00 -0.8 0 Calma 9 Sudeste 0 -- -- 95
2019-11-20 01:00:00 -0.3 2 Sur 7 Sur 0 -- -- 93
2019-11-20 00:00:00 1.8 2 Sur 14 Sur 0 -- -- 88
2019-11-19 23:00:00 2.1 8 Sur 20 Sur 0 -- -- 87
2019-11-19 22:00:00 2 7 Sur 12 Sur 0 -- -- 90
2019-11-19 21:00:00 0.6 2 Norte 4 Sudeste 0 -- -- 91
2019-11-19 20:00:00 0.4 0 Calma 8 Sudoeste 0 -- -- 91
2019-11-19 19:00:00 0.2 7 Sudoeste 9 Sudoeste 0 -- -- 91
2019-11-19 18:00:00 1.9 6 Sur 15 Sudoeste 0 -- -- 88
2019-11-19 17:00:00 3.2 9 Sur 18 Sudoeste 0 -- -- 81
2019-11-19 16:00:00 4.7 11 Sur 21 Sur 0 -- -- 71
2019-11-19 15:00:00 4.9 10 Sur 19 Sur 0 -- -- 71
2019-11-19 14:00:00 4.6 9 Sur 21 Sudoeste 0 -- -- 71
2019-11-19 13:00:00 3.9 10 Sur 23 Sur 0 -- -- 73
2019-11-19 12:00:00 3.8 10 Sur 15 Sur 0 -- -- 75
2019-11-19 11:00:00 0.8 0 Calma 4 Sudoeste 0 -- -- 85
2019-11-19 10:00:00 -1.7 0 Calma 3 Sudoeste 0 -- -- 96
2019-11-19 09:00:00 -3.9 2 Sudoeste 3 Sudeste 0 -- -- 97
2019-11-19 08:00:00 -4.7 3 Sur 4 Sudeste 0 -- -- 98
2019-11-19 07:00:00 -4.9 2 Sudoeste 5 Este 0 -- -- 98
2019-11-19 06:00:00 -5.7 0 Calma 5 Sudoeste 0 -- -- 98
2019-11-19 05:00:00 -5.7 0 Calma 5 Sudoeste 0 -- -- 99
2019-11-19 04:00:00 -5.1 2 Sur 7 Sudoeste 0 -- -- 99
2019-11-19 03:00:00 -5.4 0 Calma 5 Sudoeste 0 -- -- 98
2019-11-19 02:00:00 -4.8 2 Sudeste 7 Sudeste 0 -- -- 97
2019-11-19 01:00:00 -4.1 2 Sudeste 5 Sudoeste 0 -- -- 95
2019-11-19 00:00:00 -3.4 2 Norte 9 Norte 0 -- -- 96
2019-11-18 23:00:00 -3.3 5 Norte 9 Nordeste 0 -- -- 96
2019-11-18 22:00:00 -3 2 Sur 7 Sudeste 0 -- -- 94
2019-11-18 21:00:00 -2.2 0 Calma 12 Sudeste 0 -- -- 93
2019-11-18 20:00:00 -0.3 5 Sur 17 Sudeste 0 -- -- 87
2019-11-18 19:00:00 0.2 12 Norte 15 Norte 0 -- -- 88
2019-11-18 18:00:00 3.2 12 Nordeste 23 Nordeste 0 -- -- 73
2019-11-18 17:00:00 3.6 10 Nordeste 22 Norte 0 -- -- 70
2019-11-18 16:00:00 4 16 Norte 30 Norte 0 -- -- 69
2019-11-18 15:00:00 5.1 22 Norte 34 Norte 0 -- -- 68
2019-11-18 14:00:00 4.5 22 Norte 37 Norte 0 -- -- 71
2019-11-18 13:00:00 4 24 Norte 33 Norte 0 -- -- 73
2019-11-18 12:00:00 4.5 21 Norte 33 Nordeste 0 -- -- 74
2019-11-18 11:00:00 3.5 22 Nordeste 32 Norte 0 -- -- 78
2019-11-18 10:00:00 2.1 18 Norte 30 Norte 0 -- -- 86
2019-11-18 09:00:00 1.1 19 Nordeste 27 Norte 0 -- -- 90
2019-11-18 08:00:00 1 21 Norte 30 Norte 0 -- -- 90
2019-11-18 07:00:00 1.1 21 Nordeste 33 Nordeste 0 -- -- 90
2019-11-18 06:00:00 1.3 17 Nordeste 32 Norte 0 -- -- 87
2019-11-18 05:00:00 1.5 16 Norte 30 Noroeste 0 -- -- 89
2019-11-18 04:00:00 1.4 8 Norte 24 Norte 0 -- -- 90
2019-11-18 03:00:00 1.1 4 Este 29 Norte 0 -- -- 93
2019-11-18 02:00:00 1.1 14 Norte 32 Norte 0 -- -- 92
2019-11-18 01:00:00 1.6 8 Nordeste 27 Noroeste 0 -- -- 85
2019-11-18 00:00:00 1.8 15 Norte 28 Norte 0 -- -- 84
2019-11-17 23:00:00 2.4 6 Sur 22 Sur 0 -- -- 84
2019-11-17 22:00:00 2.4 10 Norte 36 Norte 0 -- -- 82
2019-11-17 21:00:00 3 16 Norte 36 Norte 0 -- -- 88
2019-11-17 20:00:00 4.4 8 Norte 19 Norte 0.6 -- -- 89
2019-11-17 19:00:00 5.5 5 Norte 19 Sudeste 0.4 -- -- 87
2019-11-17 18:00:00 5.4 4 Sur 17 Sudeste 1.2 -- -- 95
2019-11-17 17:00:00 5.9 5 Sudeste 23 Sudoeste 0.4 -- -- 92
2019-11-17 16:00:00 6.5 11 Sudoeste 30 Noroeste 0 -- -- 84
2019-11-17 15:00:00 8.1 9 Nordeste 25 Sur 0 -- -- 80
2019-11-17 14:00:00 8 12 Norte 31 Norte 0 -- -- 77
2019-11-17 13:00:00 7.5 4 Sudeste 30 Sudeste 0 -- -- 79
2019-11-17 12:00:00 6.9 6 Sudeste 15 Sudeste 0 -- -- 85
2019-11-17 11:00:00 6 3 Sudoeste 8 Sudoeste 0 -- -- 82
2019-11-17 10:00:00 3.6 2 Sudeste 11 Sudoeste 0 -- -- 88
2019-11-17 09:00:00 2.1 3 Sudoeste 21 Sur 0 -- -- 84
2019-11-17 08:00:00 1.6 2 Norte 13 Sur 0 -- -- 93
2019-11-17 07:00:00 0.7 8 Sur 12 Sur 0 -- -- 93
2019-11-17 06:00:00 0.5 3 Norte 10 Oeste 0 -- -- 91
2019-11-17 05:00:00 0.1 3 Este 14 Norte 0 -- -- 86
2019-11-17 04:00:00 -0.4 5 Nordeste 14 Norte 0 -- -- 84
2019-11-17 03:00:00 -0.5 7 Nordeste 22 Nordeste 0 -- -- 82
2019-11-17 02:00:00 -0.1 10 Nordeste 18 Nordeste 0 -- -- 81
2019-11-17 01:00:00 -0.2 3 Nordeste 23 Nordeste 0 -- -- 75
2019-11-17 00:00:00 -0.6 4 Nordeste 20 Norte 0 -- -- 78
2019-11-16 23:00:00 -1.6 4 Nordeste 10 Este 0 -- -- 85
2019-11-16 22:00:00 -2 4 Sur 10 Sudeste 0 -- -- 84
2019-11-16 21:00:00 -0.8 5 Este 15 Norte 0 -- -- 78
2019-11-16 20:00:00 -0.4 5 Norte 14 Norte 0 -- -- 76
2019-11-16 19:00:00 -0.3 4 Nordeste 20 Nordeste 0 -- -- 80
2019-11-16 18:00:00 1.3 13 Norte 20 Norte 0 -- -- 75
2019-11-16 17:00:00 3.2 12 Norte 20 Norte 0 -- -- 64
2019-11-16 16:00:00 6.1 6 Noroeste 25 Norte 0 -- -- 54
2019-11-16 15:00:00 5.1 17 Norte 28 Norte 0 -- -- 59
2019-11-16 14:00:00 6 4 Noroeste 22 Sudoeste 0 -- -- 49
2019-11-16 13:00:00 4.8 7 Noroeste 22 Oeste 0 -- -- 55
2019-11-16 12:00:00 3.7 9 Noroeste 21 Norte 0 -- -- 64
2019-11-16 11:00:00 2.3 12 Norte 24 Norte 0 -- -- 70
2019-11-16 10:00:00 1.8 10 Norte 21 Norte 0 -- -- 71
2019-11-16 09:00:00 -1 10 Norte 26 Norte 0 -- -- 82
2019-11-16 08:00:00 -1.2 17 Norte 32 Norte 0 -- -- 84
2019-11-16 07:00:00 -0.4 17 Norte 27 Norte 0 -- -- 81
2019-11-16 06:00:00 -0.6 9 Norte 23 Norte 0 -- -- 85
2019-11-16 05:00:00 -0.7 10 Norte 24 Noroeste 0 -- -- 84
2019-11-16 04:00:00 -0.5 10 Noroeste 22 Noroeste 0 -- -- 81
2019-11-16 03:00:00 -0.5 15 Norte 21 Norte 0 -- -- 83
2019-11-16 02:00:00 -0.6 13 Norte 23 Nordeste 0 -- -- 89
2019-11-16 01:00:00 -0.2 14 Norte 30 Norte 0 -- -- 84
2019-11-16 00:00:00 -0.5 13 Norte 21 Norte 0 -- -- 84
2019-11-15 23:00:00 -0.4 13 Norte 26 Norte 0 -- -- 87
2019-11-15 22:00:00 -0.1 19 Norte 35 Norte 0 -- -- 85
2019-11-15 21:00:00 0.2 12 Norte 24 Norte 0 -- -- 84
2019-11-15 20:00:00 0.5 10 Norte 17 Norte 0 -- -- 80
2019-11-15 19:00:00 0.4 7 Norte 17 Norte 0 -- -- 79
2019-11-15 18:00:00 1.1 13 Norte 21 Norte 0 -- -- 76
2019-11-15 17:00:00 1.8 13 Norte 29 Noroeste 0 -- -- 72
2019-11-15 16:00:00 1.8 15 Norte 25 Norte 0 -- -- 77
2019-11-15 15:00:00 2 9 Norte 28 Norte 0 -- -- 73
2019-11-15 14:00:00 2 15 Norte 35 Norte 0 -- -- 75
2019-11-15 13:00:00 0.8 18 Norte 29 Noroeste 0 -- -- 80
2019-11-15 12:00:00 -0.1 16 Norte 28 Norte 0 -- -- 82
2019-11-15 11:00:00 -0.5 15 Norte 27 Noroeste 0 -- -- 84
2019-11-15 10:00:00 -0.5 11 Norte 21 Nordeste 0 -- -- 85
2019-11-15 09:00:00 -1 8 Nordeste 30 Norte 0 -- -- 88
2019-11-15 08:00:00 -1.3 17 Norte 39 Norte 0 -- -- 92
2019-11-15 07:00:00 -1.2 19 Norte 40 Noroeste 0 -- -- 88
2019-11-15 06:00:00 -0.8 13 Norte 27 Norte 0 -- -- 87
2019-11-15 05:00:00 -0.6 14 Norte 27 Norte 0.2 -- -- 84
2019-11-15 04:00:00 -0.7 12 Nordeste 27 Norte 0 -- -- 87
2019-11-15 03:00:00 -0.4 13 Norte 41 Norte 0 -- -- 85
2019-11-15 02:00:00 0 10 Nordeste 29 Norte 0 -- -- 86
2019-11-15 01:00:00 0 17 Norte 43 Norte 0 -- -- 89
2019-11-15 00:00:00 0 18 Norte 41 Norte 0 -- -- 92
2019-11-14 23:00:00 -0.1 12 Norte 54 Noroeste 0 -- -- 95
2019-11-14 22:00:00 0.8 23 Norte 49 Norte 0.2 -- -- 86
2019-11-14 21:00:00 1.2 29 Norte 57 Norte 0.2 -- -- 84
2019-11-14 20:00:00 1.2 23 Norte 57 Noroeste 0.2 -- -- 87
2019-11-14 19:00:00 1.6 26 Norte 57 Norte 0 -- -- 85
2019-11-14 18:00:00 1.7 24 Norte 53 Norte 0.2 -- -- 84
2019-11-14 17:00:00 1.6 15 Norte 45 Norte 0.2 -- -- 86
2019-11-14 16:00:00 1.5 7 Sudoeste 27 Sur 0.4 -- -- 87
2019-11-14 15:00:00 1.9 5 Noroeste 31 Noroeste 0 -- -- 81
2019-11-14 14:00:00 3.1 7 Noroeste 37 Oeste 0 -- -- 77
2019-11-14 13:00:00 2.3 12 Norte 39 Oeste 0 -- -- 79
2019-11-14 12:00:00 2.3 6 Noroeste 29 Norte 0 -- -- 83
2019-11-14 11:00:00 0.6 14 Norte 29 Norte 0.2 -- -- 90
2019-11-14 10:00:00 0.2 7 Noroeste 21 Noroeste 0.6 -- -- 89
2019-11-14 09:00:00 -0.1 5 Nordeste 20 Nordeste 0.2 -- -- 97
2019-11-14 08:00:00 -0.1 9 Norte 34 Norte 1.6 -- -- 98
2019-11-14 07:00:00 3.1 8 Sur 23 Norte 1 -- -- 91
2019-11-14 06:00:00 3.7 5 Nordeste 27 Sudoeste 0.4 -- -- 91
2019-11-14 05:00:00 2.8 22 Sur 35 Sur 0 -- -- 96
2019-11-14 04:00:00 4.5 4 Sur 18 Sur 0 -- -- 69
2019-11-14 03:00:00 4.4 6 Nordeste 24 Sudeste 0 -- -- 72
2019-11-14 02:00:00 3.9 9 Noroeste 22 Norte 0 -- -- 79
2019-11-14 01:00:00 4.5 5 Sur 16 Sudeste 0 -- -- 83
2019-11-14 00:00:00 3.9 4 Sur 21 Sudoeste 0 -- -- 82
2019-11-13 23:00:00 1.3 3 Norte 19 Sudeste 0 -- -- 93
2019-11-13 22:00:00 3.3 7 Sur 13 Sudoeste 0 -- -- 90
2019-11-13 21:00:00 3 2 Sudeste 11 Oeste 0 -- -- 95
2019-11-13 20:00:00 3.6 0 Calma 15 Sudoeste 0 -- -- 91
2019-11-13 19:00:00 4.6 6 Sur 13 Nordeste 0 -- -- 89
2019-11-13 18:00:00 8.4 8 Este 14 Sudoeste 0 -- -- 68
2019-11-13 17:00:00 11.4 4 Noroeste 19 Sudoeste 0 -- -- 62
2019-11-13 16:00:00 11.6 6 Norte 24 Oeste 0 -- -- 61
2019-11-13 15:00:00 12.9 8 Oeste 21 Sudoeste 0 -- -- 59
2019-11-13 14:00:00 12.2 8 Noroeste 35 Norte 0 -- -- 62
2019-11-13 13:00:00 10 21 Norte 38 Norte 0 -- -- 78
2019-11-13 12:00:00 9 23 Norte 43 Norte 0 -- -- 81
2019-11-13 11:00:00 9.3 25 Norte 47 Norte 0 -- -- 79
2019-11-13 10:00:00 8.3 27 Norte 49 Norte 0 -- -- 87
2019-11-13 09:00:00 7.8 22 Norte 41 Norte 0 -- -- 91
2019-11-13 08:00:00 7.6 18 Norte 32 Norte 0 -- -- 89
2019-11-13 07:00:00 7.7 22 Norte 45 Norte 0.2 -- -- 90
2019-11-13 06:00:00 8.7 12 Norte 31 Norte 0 -- -- 88
2019-11-13 05:00:00 8.7 7 Norte 23 Norte 0.4 -- -- 89
2019-11-13 04:00:00 8.4 6 Sudeste 31 Sudeste 0.4 -- -- 92
2019-11-13 03:00:00 8.1 14 Sur 24 Sudeste 0.6 -- -- 92
2019-11-13 02:00:00 7.7 12 Sur 27 Sur 0.4 -- -- 91
2019-11-13 01:00:00 7.7 10 Sur 30 Sur 0.2 -- -- 91
2019-11-13 00:00:00 7.4 8 Sur 24 Sudeste 0 -- -- 91
2019-11-12 23:00:00 7 5 Este 18 Sudeste 0.4 -- -- 93
2019-11-12 22:00:00 6.7 9 Este 21 Este 0 -- -- 94
2019-11-12 21:00:00 6.7 10 Nordeste 24 Norte 0 -- -- 90
2019-11-12 20:00:00 6.3 7 Este 20 Nordeste 0 -- -- 91
2019-11-12 19:00:00 6.3 7 Este 15 Sudeste 0 -- -- 88
2019-11-12 18:00:00 5.7 6 Este 18 Noroeste 0 -- -- 83
2019-11-12 17:00:00 8 9 Norte 21 Norte 0 -- -- 67
2019-11-12 16:00:00 8.7 3 Sur 15 Norte 0 -- -- 58
2019-11-12 15:00:00 11.1 6 Noroeste 28 Norte 0 -- -- 49
2019-11-12 14:00:00 8.7 16 Norte 32 Norte 0 -- -- 53
2019-11-12 13:00:00 8.7 16 Norte 26 Norte 0 -- -- 47
2019-11-12 12:00:00 7.3 14 Nordeste 21 Norte 0 -- -- 63
2019-11-12 11:00:00 5.9 10 Norte 20 Norte 0 -- -- 67
2019-11-12 10:00:00 4.9 7 Nordeste 20 Este 0 -- -- 71
2019-11-12 09:00:00 -0.1 5 Sur 10 Este 0 -- -- 95
2019-11-12 08:00:00 -1.4 3 Sudeste 6 Sur 0 -- -- 97
2019-11-12 07:00:00 -1.6 2 Norte 9 Oeste 0 -- -- 97
2019-11-12 06:00:00 -0.8 4 Norte 7 Noroeste 0 -- -- 97
2019-11-12 05:00:00 0.7 3 Nordeste 8 Este 0 -- -- 94
2019-11-12 04:00:00 1.3 3 Nordeste 13 Sudeste 0 -- -- 93
2019-11-12 03:00:00 1.2 5 Este 8 Sudeste 0 -- -- 93
2019-11-12 02:00:00 0.1 4 Sur 13 Sudeste 0 -- -- 95
2019-11-12 01:00:00 -0.5 2 Sur 9 Norte 0 -- -- 95
2019-11-12 00:00:00 0.9 9 Norte 13 Nordeste 0 -- -- 89
2019-11-11 23:00:00 1.1 3 Norte 14 Nordeste 0 -- -- 93
2019-11-11 22:00:00 4.4 11 Nordeste 25 Nordeste 0 -- -- 80
2019-11-11 21:00:00 5.5 13 Nordeste 27 Nordeste 0 -- -- 75
2019-11-11 20:00:00 6.6 8 Este 30 Nordeste 0 -- -- 74
2019-11-11 19:00:00 7 21 Norte 36 Norte 0 -- -- 78
2019-11-11 18:00:00 7.5 18 Norte 36 Norte 0 -- -- 76
2019-11-11 17:00:00 8.8 27 Norte 41 Norte 0 -- -- 69
2019-11-11 16:00:00 10.2 28 Norte 41 Norte 0 -- -- 70
2019-11-11 15:00:00 9.6 20 Norte 32 Noroeste 0 -- -- 77
2019-11-11 14:00:00 10.1 18 Norte 37 Norte 0 -- -- 81
2019-11-11 13:00:00 9.5 18 Norte 37 Norte 0 -- -- 82
2019-11-11 12:00:00 8.2 15 Norte 28 Norte 0 -- -- 87
2019-11-11 11:00:00 7.7 8 Este 24 Norte 0 -- -- 87
2019-11-11 10:00:00 6.3 11 Norte 20 Norte 0 -- -- 91
2019-11-11 09:00:00 5.7 8 Norte 18 Nordeste 0 -- -- 91
2019-11-11 08:00:00 4.3 10 Nordeste 22 Norte 0 -- -- 93
2019-11-11 07:00:00 3.8 9 Norte 18 Norte 0 -- -- 90
2019-11-11 06:00:00 3.8 7 Nordeste 12 Noroeste 0 -- -- 87
2019-11-11 05:00:00 3.6 3 Sudoeste 15 Noroeste 0 -- -- 89
2019-11-11 04:00:00 3 6 Nordeste 17 Nordeste 0 -- -- 88
2019-11-11 03:00:00 2.3 3 Nordeste 18 Nordeste 0 -- -- 91
2019-11-11 02:00:00 2.7 8 Nordeste 26 Norte 0 -- -- 88
2019-11-11 01:00:00 2.4 11 Norte 26 Noroeste 0 -- -- 90
2019-11-11 00:00:00 2.3 14 Norte 26 Nordeste 0 -- -- 91
2019-11-10 23:00:00 2.1 9 Nordeste 23 Norte 0 -- -- 92
2019-11-10 22:00:00 1.9 12 Norte 32 Norte 0 -- -- 94
2019-11-10 21:00:00 1.9 20 Norte 42 Norte 0 -- -- 92
2019-11-10 20:00:00 1.9 21 Norte 41 Norte 0 -- -- 93
2019-11-10 19:00:00 2 24 Norte 39 Norte 0.2 -- -- 93
2019-11-10 18:00:00 2 19 Norte 32 Norte 0.2 -- -- 92
2019-11-10 17:00:00 2.6 14 Norte 30 Norte 0.2 -- -- 87
2019-11-10 16:00:00 2.2 12 Norte 26 Noroeste 0.8 -- -- 92
2019-11-10 15:00:00 2.2 17 Norte 30 Norte 0.6 -- -- 93
2019-11-10 14:00:00 1.6 13 Norte 30 Norte 0.4 -- -- 93
2019-11-10 13:00:00 2.2 16 Norte 32 Norte 0 -- -- 86
2019-11-10 12:00:00 2.6 14 Norte 35 Norte 0 -- -- 86
2019-11-10 11:00:00 2.1 16 Norte 39 Norte 0 -- -- 86
2019-11-10 10:00:00 1.8 17 Norte 33 Norte 0 -- -- 83
2019-11-10 09:00:00 1.1 13 Norte 31 Norte 0 -- -- 82
2019-11-10 08:00:00 0.8 16 Norte 37 Nordeste 0 -- -- 82
2019-11-10 07:00:00 0.7 22 Norte 38 Norte 0 -- -- 85
2019-11-10 06:00:00 1 23 Norte 43 Norte 0 -- -- 84
2019-11-10 05:00:00 1.5 25 Norte 44 Norte 0 -- -- 83
2019-11-10 04:00:00 2.2 29 Norte 46 Norte 0 -- -- 86
2019-11-10 03:00:00 3 26 Norte 48 Norte 0 -- -- 85
2019-11-10 02:00:00 3.7 29 Norte 52 Norte 0 -- -- 82
2019-11-10 01:00:00 3.7 22 Norte 50 Norte 0 -- -- 87
2019-11-10 00:00:00 4.3 18 Norte 41 Norte 0 -- -- 80